createdAt,value
2019-06-15T00:00:05.577Z,5.90
2019-06-15T00:01:05.601Z,6.00
2019-06-15T00:02:05.628Z,6.10
2019-06-15T00:03:05.652Z,6.20
2019-06-15T00:04:05.675Z,6.50
2019-06-15T00:05:05.702Z,6.60
2019-06-15T00:06:05.733Z,6.20
2019-06-15T00:07:05.753Z,6.20
2019-06-15T00:08:05.780Z,6.00
2019-06-15T00:09:05.809Z,6.30
2019-06-15T00:10:05.831Z,6.50
2019-06-15T00:11:05.855Z,6.30
2019-06-15T00:12:05.892Z,6.40
2019-06-15T00:13:05.981Z,6.10
2019-06-15T00:14:05.975Z,6.10
2019-06-15T00:15:06.016Z,6.60
2019-06-15T00:16:06.032Z,6.10
2019-06-15T00:17:06.035Z,6.40
2019-06-15T00:18:06.031Z,6.30
2019-06-15T00:19:06.059Z,6.70
2019-06-15T00:20:06.086Z,6.10
2019-06-15T00:21:06.106Z,7.10
2019-06-15T00:22:06.135Z,6.30
2019-06-15T00:23:06.159Z,7.20
2019-06-15T00:24:06.186Z,6.60
2019-06-15T00:25:06.209Z,6.20
2019-06-15T00:26:06.238Z,6.20
2019-06-15T00:27:06.260Z,6.20
2019-06-15T00:28:06.284Z,6.50
2019-06-15T00:29:06.317Z,7.10
2019-06-15T00:30:06.336Z,6.80
2019-06-15T00:31:06.361Z,6.70
2019-06-15T00:32:06.384Z,6.80
2019-06-15T00:33:06.411Z,7.00
2019-06-15T00:34:06.437Z,6.60
2019-06-15T00:35:06.464Z,6.80
2019-06-15T00:36:06.487Z,6.90
2019-06-15T00:37:06.515Z,7.10
2019-06-15T00:38:06.542Z,7.30
2019-06-15T00:39:06.567Z,6.60
2019-06-15T00:40:06.590Z,7.20
2019-06-15T00:41:06.614Z,6.90
2019-06-15T00:42:06.644Z,7.40
2019-06-15T00:43:06.666Z,7.10
2019-06-15T00:44:06.694Z,6.90
2019-06-15T00:45:06.715Z,7.00
2019-06-15T00:46:06.753Z,7.50
2019-06-15T00:47:06.770Z,7.10
2019-06-15T00:48:06.792Z,7.00
2019-06-15T00:49:06.817Z,6.90
2019-06-15T00:50:06.843Z,6.90
2019-06-15T00:51:06.866Z,7.30
2019-06-15T00:52:06.890Z,8.10
2019-06-15T00:53:06.916Z,6.70
2019-06-15T00:54:06.943Z,7.20
2019-06-15T00:55:06.976Z,6.90
2019-06-15T00:56:06.995Z,7.50
2019-06-15T00:57:07.023Z,7.60
2019-06-15T00:58:07.048Z,7.40
2019-06-15T00:59:07.070Z,7.70
2019-06-15T01:00:07.095Z,7.70
2019-06-15T01:01:07.121Z,7.30
2019-06-15T01:02:07.146Z,7.20
2019-06-15T01:03:07.170Z,7.10
2019-06-15T01:04:07.199Z,6.90
2019-06-15T01:05:07.219Z,6.70
2019-06-15T01:06:07.249Z,7.30
2019-06-15T01:07:07.271Z,7.00
2019-06-15T01:08:07.298Z,7.30
2019-06-15T01:09:07.321Z,7.20
2019-06-15T01:10:07.345Z,7.30
2019-06-15T01:11:07.372Z,7.80
2019-06-15T01:12:07.403Z,7.70
2019-06-15T01:13:07.426Z,7.10
2019-06-15T01:14:07.447Z,8.10
2019-06-15T01:15:07.473Z,7.50
2019-06-15T01:16:07.501Z,8.10
2019-06-15T01:17:07.519Z,7.90
2019-06-15T01:18:07.547Z,8.00
2019-06-15T01:19:07.578Z,7.30
2019-06-15T01:20:07.604Z,8.00
2019-06-15T01:21:07.618Z,7.40
2019-06-15T01:22:07.645Z,8.30
2019-06-15T01:23:07.675Z,7.70
2019-06-15T01:24:07.700Z,8.00
2019-06-15T01:25:07.723Z,8.00
2019-06-15T01:26:07.749Z,7.20
2019-06-15T01:27:07.773Z,7.30
2019-06-15T01:28:07.878Z,8.20
2019-06-15T01:29:07.878Z,7.10
2019-06-15T01:30:07.886Z,7.10
2019-06-15T01:31:07.930Z,7.10
2019-06-15T01:32:07.938Z,9.30
2019-06-15T01:33:07.930Z,8.00
2019-06-15T01:34:07.949Z,7.80
2019-06-15T01:35:07.975Z,7.50
2019-06-15T01:36:08.001Z,7.40
2019-06-15T01:37:08.023Z,7.40
2019-06-15T01:38:08.049Z,7.60
2019-06-15T01:39:08.074Z,8.10
2019-06-15T01:40:08.100Z,7.30
2019-06-15T01:41:08.121Z,7.60
2019-06-15T01:42:08.149Z,7.40
2019-06-15T01:43:08.175Z,7.90
2019-06-15T01:44:08.207Z,7.30
2019-06-15T01:45:08.221Z,7.60
2019-06-15T01:46:08.251Z,7.20
2019-06-15T01:47:08.276Z,7.20
2019-06-15T01:48:08.301Z,7.90
2019-06-15T01:49:08.351Z,7.30
2019-06-15T01:50:08.350Z,7.90
2019-06-15T01:51:08.375Z,7.80
2019-06-15T01:52:08.405Z,7.80
2019-06-15T01:53:08.425Z,8.00
2019-06-15T01:54:08.449Z,7.90
2019-06-15T01:55:19.909Z,7.30
2019-06-15T01:56:08.501Z,6.80
2019-06-15T01:57:08.526Z,7.40
2019-06-15T01:58:08.551Z,7.50
2019-06-15T01:59:08.577Z,7.60
2019-06-15T02:00:08.602Z,8.00
2019-06-15T02:01:08.623Z,7.20
2019-06-15T02:02:08.649Z,7.90
2019-06-15T02:03:08.678Z,8.00
2019-06-15T02:04:08.701Z,7.50
2019-06-15T02:05:08.725Z,7.00
2019-06-15T02:06:08.750Z,7.50
2019-06-15T02:07:08.774Z,7.70
2019-06-15T02:08:08.802Z,7.50
2019-06-15T02:09:08.826Z,7.50
2019-06-15T02:10:08.850Z,7.70
2019-06-15T02:11:08.878Z,7.60
2019-06-15T02:12:08.907Z,7.30
2019-06-15T02:13:08.973Z,7.60
2019-06-15T02:14:08.954Z,7.50
2019-06-15T02:15:08.978Z,7.10
2019-06-15T02:16:09.000Z,6.90
2019-06-15T02:17:09.030Z,7.50
2019-06-15T02:18:09.047Z,7.50
2019-06-15T02:19:09.076Z,7.70
2019-06-15T02:20:09.099Z,7.50
2019-06-15T02:21:09.120Z,7.60
2019-06-15T02:22:09.147Z,7.40
2019-06-15T02:23:09.173Z,7.30
2019-06-15T02:24:09.200Z,7.80
2019-06-15T02:25:09.221Z,7.30
2019-06-15T02:26:09.250Z,7.70
2019-06-15T02:27:09.279Z,7.40
2019-06-15T02:28:09.299Z,7.60
2019-06-15T02:29:09.323Z,7.40
2019-06-15T02:30:09.349Z,8.00
2019-06-15T02:31:09.385Z,7.40
2019-06-15T02:32:09.400Z,7.30
2019-06-15T02:33:09.429Z,7.20
2019-06-15T02:34:09.451Z,7.40
2019-06-15T02:35:09.475Z,7.40
2019-06-15T02:36:09.500Z,8.50
2019-06-15T02:37:09.523Z,7.70
2019-06-15T02:38:09.548Z,7.10
2019-06-15T02:39:09.570Z,7.10
2019-06-15T02:40:09.598Z,7.20
2019-06-15T02:41:09.623Z,7.60
2019-06-15T02:42:09.646Z,7.60
2019-06-15T02:43:09.675Z,7.40
2019-06-15T02:44:09.709Z,7.90
2019-06-15T02:45:09.791Z,7.80
2019-06-15T02:46:09.785Z,7.70
2019-06-15T02:47:09.854Z,7.10
2019-06-15T02:48:09.838Z,7.80
2019-06-15T02:49:09.845Z,7.90
2019-06-15T02:50:09.847Z,8.00
2019-06-15T02:51:09.872Z,7.90
2019-06-15T02:52:09.942Z,7.80
2019-06-15T02:53:09.928Z,7.80
2019-06-15T02:54:09.946Z,7.60
2019-06-15T02:55:09.970Z,7.70
2019-06-15T02:56:09.996Z,7.90
2019-06-15T02:57:10.022Z,7.80
2019-06-15T02:58:10.046Z,7.70
2019-06-15T02:59:10.074Z,7.60
2019-06-15T03:00:10.093Z,7.60
2019-06-15T03:01:10.121Z,7.80
2019-06-15T03:02:10.146Z,7.30
2019-06-15T03:03:10.172Z,8.20
2019-06-15T03:04:10.195Z,7.60
2019-06-15T03:05:10.253Z,7.90
2019-06-15T03:06:10.245Z,7.80
2019-06-15T03:07:10.271Z,7.60
2019-06-15T03:08:10.323Z,8.30
2019-06-15T03:09:10.319Z,7.70
2019-06-15T03:10:10.346Z,8.20
2019-06-15T03:11:10.371Z,8.10
2019-06-15T03:12:10.396Z,8.30
2019-06-15T03:13:10.419Z,8.20
2019-06-15T03:14:10.444Z,8.10
2019-06-15T03:15:10.466Z,8.60
2019-06-15T03:16:10.493Z,8.60
2019-06-15T03:17:10.517Z,8.10
2019-06-15T03:18:10.546Z,8.60
2019-06-15T03:19:10.568Z,8.20
2019-06-15T03:20:10.592Z,8.50
2019-06-15T03:21:10.620Z,7.80
2019-06-15T03:22:10.645Z,8.60
2019-06-15T03:23:10.665Z,8.00
2019-06-15T03:24:10.696Z,8.00
2019-06-15T03:25:10.718Z,8.30
2019-06-15T03:26:10.741Z,8.40
2019-06-15T03:27:10.770Z,8.70
2019-06-15T03:28:10.791Z,9.00
2019-06-15T03:29:10.819Z,7.80
2019-06-15T03:30:10.843Z,7.60
2019-06-15T03:31:10.869Z,8.40
2019-06-15T03:32:10.891Z,8.40
2019-06-15T03:33:10.917Z,9.20
2019-06-15T03:34:10.968Z,8.70
2019-06-15T03:35:10.969Z,8.30
2019-06-15T03:36:10.992Z,8.90
2019-06-15T03:37:11.013Z,9.20
2019-06-15T03:38:11.040Z,9.00
2019-06-15T03:39:11.063Z,8.90
2019-06-15T03:40:11.092Z,9.10
2019-06-15T03:41:11.112Z,9.40
2019-06-15T03:42:11.139Z,8.60
2019-06-15T03:43:11.162Z,9.40
2019-06-15T03:44:11.186Z,9.80
2019-06-15T03:45:11.213Z,8.90
2019-06-15T03:46:11.236Z,10.00
2019-06-15T03:47:11.268Z,9.30
2019-06-15T03:48:11.298Z,10.10
2019-06-15T03:49:11.315Z,9.40
2019-06-15T03:50:11.335Z,9.40
2019-06-15T03:51:11.360Z,10.00
2019-06-15T03:52:11.384Z,9.40
2019-06-15T03:53:11.409Z,9.50
2019-06-15T03:54:11.432Z,8.90
2019-06-15T03:55:11.459Z,9.20
2019-06-15T03:56:21.180Z,9.50
2019-06-15T03:57:11.506Z,9.60
2019-06-15T03:58:11.530Z,9.10
2019-06-15T03:59:11.556Z,9.80
2019-06-15T04:00:11.585Z,9.60
2019-06-15T04:01:11.632Z,9.30
2019-06-15T04:02:11.692Z,9.60
2019-06-15T04:03:11.709Z,9.60
2019-06-15T04:04:11.749Z,9.60
2019-06-15T04:05:11.751Z,8.80
2019-06-15T04:06:11.751Z,9.10
2019-06-15T04:07:11.751Z,9.40
2019-06-15T04:08:11.778Z,9.40
2019-06-15T04:09:11.802Z,10.10
2019-06-15T04:10:11.827Z,9.70
2019-06-15T04:11:11.852Z,9.20
2019-06-15T04:12:11.877Z,9.20
2019-06-15T04:13:11.899Z,9.40
2019-06-15T04:14:11.925Z,9.10
2019-06-15T04:15:11.949Z,8.50
2019-06-15T04:16:11.979Z,8.70
2019-06-15T04:17:12.004Z,8.60
2019-06-15T04:18:12.022Z,9.50
2019-06-15T04:19:12.049Z,8.80
2019-06-15T04:20:12.077Z,9.30
2019-06-15T04:21:12.101Z,8.70
2019-06-15T04:22:12.125Z,8.60
2019-06-15T04:23:12.145Z,9.20
2019-06-15T04:24:12.171Z,9.20
2019-06-15T04:25:12.205Z,9.70
2019-06-15T04:26:12.221Z,9.40
2019-06-15T04:27:12.246Z,9.30
2019-06-15T04:28:12.272Z,8.90
2019-06-15T04:29:12.296Z,8.90
2019-06-15T04:30:12.321Z,8.80
2019-06-15T04:31:12.347Z,9.40
2019-06-15T04:32:12.369Z,9.10
2019-06-15T04:33:12.430Z,9.50
2019-06-15T04:34:12.421Z,9.40
2019-06-15T04:35:12.444Z,9.00
2019-06-15T04:36:12.470Z,8.60
2019-06-15T04:37:12.495Z,8.80
2019-06-15T04:38:12.518Z,9.50
2019-06-15T04:39:12.544Z,8.90
2019-06-15T04:40:12.571Z,9.10
2019-06-15T04:41:12.595Z,9.30
2019-06-15T04:42:12.620Z,10.00
2019-06-15T04:43:12.646Z,9.70
2019-06-15T04:44:12.672Z,9.40
2019-06-15T04:45:12.694Z,8.90
2019-06-15T04:46:12.721Z,9.00
2019-06-15T04:47:12.747Z,9.20
2019-06-15T04:48:12.826Z,9.10
2019-06-15T04:49:12.795Z,8.50
2019-06-15T04:50:12.820Z,9.40
2019-06-15T04:51:12.882Z,9.10
2019-06-15T04:52:12.898Z,9.10
2019-06-15T04:53:14.834Z,9.20
2019-06-15T04:54:12.923Z,9.20
2019-06-15T04:55:12.952Z,9.10
2019-06-15T04:56:12.976Z,8.70
2019-06-15T04:57:12.999Z,9.00
2019-06-15T04:58:13.033Z,9.30
2019-06-15T04:59:13.051Z,9.10
2019-06-15T05:00:13.076Z,9.60
2019-06-15T05:01:13.099Z,9.10
2019-06-15T05:02:13.126Z,9.10
2019-06-15T05:03:13.155Z,8.90
2019-06-15T05:04:13.186Z,9.60
2019-06-15T05:05:13.203Z,8.80
2019-06-15T05:06:13.233Z,9.60
2019-06-15T05:07:13.254Z,9.80
2019-06-15T05:08:13.291Z,9.30
2019-06-15T05:09:13.310Z,8.50
2019-06-15T05:10:13.332Z,9.40
2019-06-15T05:11:13.363Z,9.70
2019-06-15T05:12:13.387Z,9.00
2019-06-15T05:13:13.409Z,9.20
2019-06-15T05:14:13.436Z,8.30
2019-06-15T05:15:13.463Z,8.80
2019-06-15T05:16:13.486Z,7.80
2019-06-15T05:17:13.522Z,8.90
2019-06-15T05:18:13.599Z,9.30
2019-06-15T05:19:13.607Z,8.30
2019-06-15T05:20:13.652Z,9.10
2019-06-15T05:21:13.659Z,8.10
2019-06-15T05:22:13.658Z,8.80
2019-06-15T05:23:13.667Z,8.30
2019-06-15T05:24:13.693Z,8.80
2019-06-15T05:25:13.716Z,7.90
2019-06-15T05:26:13.744Z,8.60
2019-06-15T05:27:13.776Z,8.10
2019-06-15T05:28:13.797Z,8.60
2019-06-15T05:29:13.821Z,8.40
2019-06-15T05:30:13.851Z,8.70
2019-06-15T05:31:13.879Z,9.00
2019-06-15T05:32:13.904Z,8.30
2019-06-15T05:33:13.934Z,8.50
2019-06-15T05:34:13.954Z,8.80
2019-06-15T05:35:13.981Z,8.30
2019-06-15T05:36:14.007Z,8.50
2019-06-15T05:37:14.032Z,8.00
2019-06-15T05:38:14.060Z,9.00
2019-06-15T05:39:14.086Z,8.90
2019-06-15T05:40:14.113Z,8.40
2019-06-15T05:41:15.788Z,8.40
2019-06-15T05:42:14.167Z,8.70
2019-06-15T05:43:14.191Z,8.00
2019-06-15T05:44:14.220Z,8.20
2019-06-15T05:45:14.254Z,7.70
2019-06-15T05:46:14.269Z,8.90
2019-06-15T05:47:14.295Z,8.70
2019-06-15T05:48:14.327Z,7.60
2019-06-15T05:49:14.351Z,8.50
2019-06-15T05:50:14.380Z,8.30
2019-06-15T05:51:14.425Z,8.10
2019-06-15T05:52:14.432Z,7.70
2019-06-15T05:53:14.457Z,8.30
2019-06-15T05:54:14.483Z,8.40
2019-06-15T05:55:14.510Z,8.00
2019-06-15T05:56:14.538Z,8.10
2019-06-15T05:57:21.551Z,7.90
2019-06-15T05:58:14.589Z,7.90
2019-06-15T05:59:14.617Z,8.00
2019-06-15T06:00:14.644Z,7.80
2019-06-15T06:01:14.670Z,8.00
2019-06-15T06:02:14.697Z,7.70
2019-06-15T06:03:14.724Z,7.90
2019-06-15T06:04:14.764Z,8.30
2019-06-15T06:05:14.777Z,7.70
2019-06-15T06:06:14.807Z,8.00
2019-06-15T06:07:14.832Z,7.40
2019-06-15T06:08:14.860Z,8.30
2019-06-15T06:09:14.890Z,8.20
2019-06-15T06:10:14.912Z,8.20
2019-06-15T06:11:14.957Z,7.70
2019-06-15T06:12:15.005Z,7.50
2019-06-15T06:13:14.991Z,7.30
2019-06-15T06:14:15.021Z,7.30
2019-06-15T06:15:15.046Z,7.60
2019-06-15T06:16:15.080Z,8.00
2019-06-15T06:17:15.102Z,8.00
2019-06-15T06:18:15.131Z,7.30
2019-06-15T06:19:15.156Z,7.20
2019-06-15T06:20:15.185Z,7.60
2019-06-15T06:21:15.212Z,7.40
2019-06-15T06:22:15.242Z,7.60
2019-06-15T06:23:15.265Z,7.10
2019-06-15T06:24:15.296Z,7.40
2019-06-15T06:25:15.323Z,7.20
2019-06-15T06:26:15.388Z,8.10
2019-06-15T06:27:15.431Z,7.50
2019-06-15T06:28:15.411Z,7.20
2019-06-15T06:29:15.494Z,7.10
2019-06-15T06:30:15.506Z,6.80
2019-06-15T06:31:15.517Z,7.30
2019-06-15T06:32:15.570Z,7.20
2019-06-15T06:33:15.572Z,6.90
2019-06-15T06:34:15.576Z,6.90
2019-06-15T06:35:15.606Z,7.00
2019-06-15T06:36:15.633Z,7.40
2019-06-15T06:37:15.662Z,6.70
2019-06-15T06:38:15.716Z,7.30
2019-06-15T06:39:15.718Z,7.20
2019-06-15T06:40:15.751Z,7.20
2019-06-15T06:41:15.778Z,7.00
2019-06-15T06:42:15.806Z,6.70
2019-06-15T06:43:15.833Z,7.10
2019-06-15T06:44:15.861Z,7.30
2019-06-15T06:45:15.892Z,7.00
2019-06-15T06:46:15.922Z,7.80
2019-06-15T06:47:16.003Z,6.80
2019-06-15T06:48:15.981Z,7.00
2019-06-15T06:49:16.007Z,7.00
2019-06-15T06:50:16.032Z,6.80
2019-06-15T06:51:16.065Z,6.50
2019-06-15T06:52:16.093Z,6.70
2019-06-15T06:53:16.125Z,6.70
2019-06-15T06:54:16.151Z,6.40
2019-06-15T06:55:16.184Z,6.10
2019-06-15T06:56:16.216Z,6.60
2019-06-15T06:57:16.247Z,6.40
2019-06-15T06:58:16.278Z,6.70
2019-06-15T06:59:16.308Z,6.90
2019-06-15T07:00:16.340Z,6.70
2019-06-15T07:01:16.370Z,6.80
2019-06-15T07:02:16.401Z,6.30
2019-06-15T07:03:16.431Z,7.20
2019-06-15T07:04:16.465Z,6.40
2019-06-15T07:05:16.497Z,6.80
2019-06-15T07:06:16.528Z,6.90
2019-06-15T07:07:16.560Z,6.60
2019-06-15T07:08:16.594Z,7.40
2019-06-15T07:09:16.621Z,7.70
2019-06-15T07:10:16.652Z,7.00
2019-06-15T07:11:16.684Z,7.60
2019-06-15T07:12:16.717Z,7.20
2019-06-15T07:13:16.748Z,8.10
2019-06-15T07:14:16.777Z,6.90
2019-06-15T07:15:16.810Z,6.70
2019-06-15T07:16:16.841Z,7.20
2019-06-15T07:17:16.869Z,7.20
2019-06-15T07:18:16.901Z,7.40
2019-06-15T07:19:16.931Z,7.90
2019-06-15T07:20:16.965Z,7.20
2019-06-15T07:21:16.995Z,7.50
2019-06-15T07:22:17.033Z,7.50
2019-06-15T07:23:17.055Z,7.20
2019-06-15T07:24:17.098Z,7.40
2019-06-15T07:25:17.117Z,7.30
2019-06-15T07:26:17.148Z,7.60
2019-06-15T07:27:17.177Z,8.00
2019-06-15T07:28:17.209Z,8.00
2019-06-15T07:29:17.286Z,7.60
2019-06-15T07:30:17.276Z,7.30
2019-06-15T07:31:17.300Z,7.40
2019-06-15T07:32:17.329Z,7.80
2019-06-15T07:33:17.437Z,7.60
2019-06-15T07:34:17.447Z,7.20
2019-06-15T07:35:17.449Z,8.00
2019-06-15T07:36:17.495Z,7.80
2019-06-15T07:37:17.490Z,7.70
2019-06-15T07:38:17.507Z,7.50
2019-06-15T07:39:17.538Z,7.30
2019-06-15T07:40:17.568Z,8.00
2019-06-15T07:41:17.597Z,8.00
2019-06-15T07:42:17.633Z,7.70
2019-06-15T07:43:17.657Z,7.40
2019-06-15T07:44:17.690Z,7.30
2019-06-15T07:45:17.715Z,7.70
2019-06-15T07:46:17.771Z,8.30
2019-06-15T07:47:17.777Z,7.40
2019-06-15T07:48:17.809Z,7.20
2019-06-15T07:49:17.835Z,7.40
2019-06-15T07:50:17.863Z,7.20
2019-06-15T07:51:17.901Z,7.90
2019-06-15T07:52:17.929Z,7.60
2019-06-15T07:53:17.955Z,7.50
2019-06-15T07:54:17.985Z,7.60
2019-06-15T07:55:18.015Z,7.20
2019-06-15T07:56:18.046Z,6.90
2019-06-15T07:57:18.077Z,7.20
2019-06-15T07:58:24.480Z,7.00
2019-06-15T07:59:18.141Z,7.50
2019-06-15T08:00:18.179Z,7.30
2019-06-15T08:01:18.215Z,6.70
2019-06-15T08:02:18.254Z,7.10
2019-06-15T08:03:18.273Z,7.50
2019-06-15T08:04:18.305Z,7.40
2019-06-15T08:05:18.340Z,6.70
2019-06-15T08:06:18.373Z,7.00
2019-06-15T08:07:18.402Z,7.40
2019-06-15T08:08:18.440Z,8.00
2019-06-15T08:09:18.469Z,6.90
2019-06-15T08:10:18.501Z,6.60
2019-06-15T08:11:18.535Z,7.40
2019-06-15T08:12:18.573Z,7.70
2019-06-15T08:13:18.606Z,7.20
2019-06-15T08:14:18.641Z,7.10
2019-06-15T08:15:18.675Z,7.50
2019-06-15T08:16:18.706Z,7.90
2019-06-15T08:17:18.742Z,7.90
2019-06-15T08:18:18.775Z,7.90
2019-06-15T08:19:18.807Z,8.30
2019-06-15T08:20:18.839Z,8.00
2019-06-15T08:21:18.874Z,8.30
2019-06-15T08:22:18.914Z,7.80
2019-06-15T08:23:18.941Z,7.90
2019-06-15T08:24:18.980Z,7.70
2019-06-15T08:25:19.047Z,8.10
2019-06-15T08:26:19.040Z,8.00
2019-06-15T08:27:19.078Z,7.60
2019-06-15T08:28:19.114Z,8.30
2019-06-15T08:29:19.146Z,8.10
2019-06-15T08:30:19.176Z,8.00
2019-06-15T08:31:19.212Z,7.90
2019-06-15T08:32:19.247Z,8.20
2019-06-15T08:33:19.327Z,8.20
2019-06-15T08:34:19.363Z,8.20
2019-06-15T08:35:19.382Z,8.00
2019-06-15T08:36:19.425Z,8.70
2019-06-15T08:37:19.429Z,8.80
2019-06-15T08:38:19.443Z,8.00
2019-06-15T08:39:19.478Z,8.90
2019-06-15T08:40:19.512Z,8.70
2019-06-15T08:41:19.544Z,8.30
2019-06-15T08:42:19.578Z,8.30
2019-06-15T08:43:19.615Z,8.10
2019-06-15T08:44:19.647Z,8.70
2019-06-15T08:45:19.682Z,8.30
2019-06-15T08:46:19.715Z,8.30
2019-06-15T08:47:19.747Z,9.20
2019-06-15T08:48:19.782Z,9.10
2019-06-15T08:49:19.827Z,8.80
2019-06-15T08:50:19.853Z,8.30
2019-06-15T08:51:19.893Z,9.00
2019-06-15T08:52:19.922Z,8.60
2019-06-15T08:53:19.957Z,8.80
2019-06-15T08:54:19.992Z,8.60
2019-06-15T08:55:20.031Z,9.10
2019-06-15T08:56:20.064Z,8.40
2019-06-15T08:57:20.103Z,8.70
2019-06-15T08:58:20.134Z,8.50
2019-06-15T08:59:20.174Z,8.10
2019-06-15T09:00:20.212Z,8.00
2019-06-15T09:01:20.310Z,8.00
2019-06-15T09:02:20.285Z,7.90
2019-06-15T09:03:20.324Z,8.20
2019-06-15T09:04:20.357Z,8.50
2019-06-15T09:05:20.413Z,8.00
2019-06-15T09:06:20.436Z,7.80
2019-06-15T09:07:20.472Z,8.10
2019-06-15T09:08:20.508Z,8.00
2019-06-15T09:09:20.547Z,7.80
2019-06-15T09:10:20.583Z,8.30
2019-06-15T09:11:20.622Z,7.90
2019-06-15T09:12:20.658Z,7.90
2019-06-15T09:13:20.702Z,8.60
2019-06-15T09:14:20.735Z,8.40
2019-06-15T09:15:20.777Z,8.50
2019-06-15T09:16:20.810Z,7.80
2019-06-15T09:17:20.851Z,7.80
2019-06-15T09:18:20.884Z,8.10
2019-06-15T09:19:20.946Z,8.10
2019-06-15T09:20:20.961Z,8.10
2019-06-15T09:21:21.002Z,8.20
2019-06-15T09:22:21.039Z,8.80
2019-06-15T09:23:21.076Z,7.80
2019-06-15T09:24:21.118Z,7.90
2019-06-15T09:25:21.153Z,7.90
2019-06-15T09:26:21.192Z,7.90
2019-06-15T09:27:21.293Z,8.00
2019-06-15T09:28:21.298Z,8.20
2019-06-15T09:29:21.378Z,8.00
2019-06-15T09:30:21.369Z,7.90
2019-06-15T09:31:21.387Z,8.10
2019-06-15T09:32:21.426Z,8.20
2019-06-15T09:33:21.463Z,8.60
2019-06-15T09:34:21.516Z,8.50
2019-06-15T09:35:21.543Z,8.20
2019-06-15T09:36:21.585Z,8.90
2019-06-15T09:37:21.624Z,8.30
2019-06-15T09:38:21.665Z,8.60
2019-06-15T09:39:21.702Z,8.60
2019-06-15T09:40:21.751Z,8.80
2019-06-15T09:41:21.791Z,8.60
2019-06-15T09:42:21.821Z,8.70
2019-06-15T09:43:21.861Z,8.90
2019-06-15T09:44:21.902Z,8.30
2019-06-15T09:45:21.941Z,8.60
2019-06-15T09:46:21.982Z,8.50
2019-06-15T09:47:22.024Z,8.50
2019-06-15T09:48:22.062Z,8.80
2019-06-15T09:49:22.102Z,8.80
2019-06-15T09:50:22.141Z,8.80
2019-06-15T09:51:22.181Z,8.70
2019-06-15T09:52:22.222Z,8.80
2019-06-15T09:53:22.259Z,8.70
2019-06-15T09:54:22.303Z,8.90
2019-06-15T09:55:22.341Z,9.40
2019-06-15T09:56:22.385Z,9.10
2019-06-15T09:57:22.422Z,8.80
2019-06-15T09:58:22.462Z,8.90
2019-06-15T09:59:25.903Z,8.40
2019-06-15T10:00:22.543Z,8.50
2019-06-15T10:01:22.581Z,8.80
2019-06-15T10:02:22.622Z,8.70
2019-06-15T10:03:22.666Z,8.50
2019-06-15T10:04:22.707Z,8.90
2019-06-15T10:05:22.741Z,8.20
2019-06-15T10:06:22.785Z,8.50
2019-06-15T10:07:22.823Z,8.70
2019-06-15T10:08:22.866Z,8.80
2019-06-15T10:09:22.900Z,8.80
2019-06-15T10:10:22.942Z,9.00
2019-06-15T10:11:22.980Z,8.70
2019-06-15T10:12:23.020Z,9.00
2019-06-15T10:13:23.058Z,8.30
2019-06-15T10:14:23.098Z,8.70
2019-06-15T10:15:23.144Z,8.30
2019-06-15T10:16:23.246Z,8.40
2019-06-15T10:17:23.261Z,8.70
2019-06-15T10:18:23.302Z,9.00
2019-06-15T10:19:23.301Z,8.50
2019-06-15T10:20:23.339Z,8.40
2019-06-15T10:21:23.372Z,8.50
2019-06-15T10:22:23.411Z,8.40
2019-06-15T10:23:23.453Z,8.10
2019-06-15T10:24:23.494Z,9.00
2019-06-15T10:25:23.529Z,9.00
2019-06-15T10:26:23.568Z,9.20
2019-06-15T10:27:23.606Z,9.20
2019-06-15T10:28:23.649Z,9.40
2019-06-15T10:29:23.682Z,9.30
2019-06-15T10:30:23.720Z,9.60
2019-06-15T10:31:23.757Z,9.30
2019-06-15T10:32:23.797Z,10.00
2019-06-15T10:33:23.834Z,9.50
2019-06-15T10:34:23.875Z,10.00
2019-06-15T10:35:23.907Z,9.60
2019-06-15T10:36:23.946Z,9.70
2019-06-15T10:37:23.989Z,9.40
2019-06-15T10:38:24.019Z,9.80
2019-06-15T10:39:24.053Z,10.30
2019-06-15T10:40:24.094Z,10.20
2019-06-15T10:41:24.131Z,10.40
2019-06-15T10:42:24.170Z,10.10
2019-06-15T10:43:24.214Z,10.60
2019-06-15T10:44:24.283Z,10.80
2019-06-15T10:45:24.279Z,10.30
2019-06-15T10:46:24.311Z,10.30
2019-06-15T10:47:24.346Z,10.40
2019-06-15T10:48:24.384Z,10.30
2019-06-15T10:49:24.417Z,10.20
2019-06-15T10:50:24.453Z,10.70
2019-06-15T10:51:24.490Z,10.10
2019-06-15T10:52:24.526Z,10.70
2019-06-15T10:53:24.560Z,10.40
2019-06-15T10:54:24.596Z,10.60
2019-06-15T10:55:24.630Z,10.00
2019-06-15T10:56:24.677Z,11.10
2019-06-15T10:57:24.700Z,10.70
2019-06-15T10:58:24.734Z,10.30
2019-06-15T10:59:24.771Z,10.10
2019-06-15T11:00:24.805Z,9.90
2019-06-15T11:01:24.836Z,10.90
2019-06-15T11:02:24.874Z,10.80
2019-06-15T11:03:24.910Z,10.60
2019-06-15T11:04:24.944Z,11.10
2019-06-15T11:05:24.984Z,10.10
2019-06-15T11:06:25.012Z,10.50
2019-06-15T11:07:25.047Z,10.50
2019-06-15T11:08:25.088Z,10.20
2019-06-15T11:09:25.180Z,10.30
2019-06-15T11:10:25.175Z,10.50
2019-06-15T11:11:25.230Z,10.40
2019-06-15T11:12:25.237Z,11.00
2019-06-15T11:13:25.256Z,9.90
2019-06-15T11:14:25.287Z,10.50
2019-06-15T11:15:25.322Z,10.70
2019-06-15T11:16:25.356Z,10.50
2019-06-15T11:17:25.387Z,9.80
2019-06-15T11:18:25.434Z,10.20
2019-06-15T11:19:25.465Z,10.90
2019-06-15T11:20:25.491Z,10.10
2019-06-15T11:21:25.526Z,10.30
2019-06-15T11:22:25.560Z,10.50
2019-06-15T11:23:25.594Z,11.20
2019-06-15T11:24:25.627Z,10.40
2019-06-15T11:25:25.666Z,10.30
2019-06-15T11:26:25.723Z,9.70
2019-06-15T11:27:25.817Z,9.80
2019-06-15T11:28:25.765Z,10.00
2019-06-15T11:29:25.799Z,10.00
2019-06-15T11:30:25.833Z,9.70
2019-06-15T11:31:25.868Z,9.80
2019-06-15T11:32:25.901Z,9.60
2019-06-15T11:33:25.935Z,10.20
2019-06-15T11:34:25.968Z,10.20
2019-06-15T11:35:26.008Z,9.60
2019-06-15T11:36:26.040Z,9.80
2019-06-15T11:37:26.072Z,9.00
2019-06-15T11:38:26.110Z,8.90
2019-06-15T11:39:26.143Z,9.60
2019-06-15T11:40:26.178Z,9.40
2019-06-15T11:41:26.212Z,9.20
2019-06-15T11:42:26.247Z,11.20
2019-06-15T11:43:26.283Z,10.20
2019-06-15T11:44:26.319Z,9.00
2019-06-15T11:45:26.355Z,11.20
2019-06-15T11:46:26.389Z,9.50
2019-06-15T11:47:26.430Z,8.40
2019-06-15T11:48:26.462Z,8.20
2019-06-15T11:49:26.496Z,9.20
2019-06-15T11:50:26.533Z,8.80
2019-06-15T11:51:26.570Z,8.50
2019-06-15T11:52:26.606Z,8.60
2019-06-15T11:53:26.641Z,8.50
2019-06-15T11:54:26.676Z,8.70
2019-06-15T11:55:38.604Z,8.40
2019-06-15T11:56:26.777Z,8.50
2019-06-15T11:57:26.781Z,8.60
2019-06-15T11:58:26.839Z,8.60
2019-06-15T11:59:26.860Z,8.30
2019-06-15T12:00:31.125Z,7.90
2019-06-15T12:01:26.937Z,8.80
2019-06-15T12:02:26.987Z,7.90
2019-06-15T12:03:27.010Z,8.10
2019-06-15T12:04:27.104Z,8.10
2019-06-15T12:05:27.111Z,8.20
2019-06-15T12:06:27.224Z,8.30
2019-06-15T12:07:27.170Z,7.60
2019-06-15T12:08:27.215Z,8.20
2019-06-15T12:09:27.241Z,7.50
2019-06-15T12:10:27.284Z,7.50
2019-06-15T12:11:27.322Z,8.10
2019-06-15T12:12:27.365Z,7.60
2019-06-15T12:13:27.403Z,7.70
2019-06-15T12:14:27.447Z,7.40
2019-06-15T12:15:27.487Z,7.30
2019-06-15T12:16:27.525Z,7.80
2019-06-15T12:17:27.564Z,7.50
2019-06-15T12:18:27.612Z,8.10
2019-06-15T12:19:27.651Z,8.10
2019-06-15T12:20:27.688Z,8.10
2019-06-15T12:21:27.733Z,7.90
2019-06-15T12:22:27.876Z,8.00
2019-06-15T12:23:27.813Z,7.80
2019-06-15T12:24:27.854Z,7.20
2019-06-15T12:25:27.897Z,7.60
2019-06-15T12:26:27.934Z,7.70
2019-06-15T12:27:27.975Z,8.10
2019-06-15T12:28:28.017Z,7.60
2019-06-15T12:29:28.065Z,8.20
2019-06-15T12:30:28.097Z,8.20
2019-06-15T12:31:28.142Z,8.20
2019-06-15T12:32:28.181Z,7.70
2019-06-15T12:33:28.225Z,8.20
2019-06-15T12:34:28.264Z,8.20
2019-06-15T12:35:28.305Z,8.50
2019-06-15T12:36:28.351Z,8.50
2019-06-15T12:37:28.391Z,8.10
2019-06-15T12:38:28.432Z,8.10
2019-06-15T12:39:28.472Z,7.70
2019-06-15T12:40:28.515Z,7.30
2019-06-15T12:41:28.554Z,7.60
2019-06-15T12:42:28.611Z,7.70
2019-06-15T12:43:28.636Z,7.50
2019-06-15T12:44:28.679Z,7.00
2019-06-15T12:45:28.721Z,7.60
2019-06-15T12:46:28.761Z,6.80
2019-06-15T12:47:28.810Z,6.90
2019-06-15T12:48:28.850Z,6.50
2019-06-15T12:49:28.888Z,6.90
2019-06-15T12:50:28.930Z,6.30
2019-06-15T12:51:29.051Z,6.30
2019-06-15T12:52:29.062Z,6.50
2019-06-15T12:53:29.128Z,6.30
2019-06-15T12:54:29.113Z,6.50
2019-06-15T12:55:29.139Z,6.70
2019-06-15T12:56:29.183Z,6.10
2019-06-15T12:57:29.225Z,6.80
2019-06-15T12:58:29.262Z,7.00
2019-06-15T12:59:29.300Z,6.40
2019-06-15T13:00:29.345Z,6.50
2019-06-15T13:01:29.383Z,6.30
2019-06-15T13:02:29.420Z,6.40
2019-06-15T13:03:29.461Z,6.40
2019-06-15T13:04:29.498Z,6.50
2019-06-15T13:05:29.536Z,6.20
2019-06-15T13:06:29.577Z,6.30
2019-06-15T13:07:29.619Z,6.10
2019-06-15T13:08:29.651Z,6.20
2019-06-15T13:09:29.715Z,6.50
2019-06-15T13:10:29.730Z,5.80
2019-06-15T13:11:29.765Z,6.30
2019-06-15T13:12:29.811Z,6.10
2019-06-15T13:13:29.850Z,5.90
2019-06-15T13:14:29.880Z,6.20
2019-06-15T13:15:29.917Z,6.00
2019-06-15T13:16:39.107Z,6.60